createdAt,value
2022-09-13T00:01:32.139Z,21.11
2022-09-13T00:03:58.660Z,21.08
2022-09-13T00:06:25.452Z,21.41
2022-09-13T00:08:53.224Z,21.26
2022-09-13T00:11:22.746Z,21.59
2022-09-13T00:13:50.097Z,21.36
2022-09-13T00:16:19.027Z,21.59
2022-09-13T00:18:45.791Z,21.86
2022-09-13T00:21:15.188Z,21.94
2022-09-13T00:23:44.421Z,21.96
2022-09-13T00:26:13.522Z,21.94
2022-09-13T00:28:40.828Z,21.62
2022-09-13T00:31:09.243Z,21.58
2022-09-13T00:33:35.843Z,21.36
2022-09-13T00:36:10.310Z,21.54
2022-09-13T00:38:40.886Z,21.27
2022-09-13T00:41:11.629Z,21.32
2022-09-13T00:43:52.158Z,21.64
2022-09-13T00:46:42.545Z,21.20
2022-09-13T00:49:19.464Z,21.64
2022-09-13T00:51:50.901Z,21.55
2022-09-13T00:54:18.386Z,21.09
2022-09-13T00:56:49.198Z,21.40
2022-09-13T00:59:50.255Z,21.46
2022-09-13T01:02:17.408Z,20.94
2022-09-13T01:04:44.146Z,21.24
2022-09-13T01:07:13.351Z,21.25
2022-09-13T01:09:44.172Z,21.33
2022-09-13T01:12:23.777Z,21.41
2022-09-13T01:14:51.915Z,21.55
2022-09-13T01:17:18.469Z,21.31
2022-09-13T01:19:45.197Z,21.25
2022-09-13T01:22:25.590Z,21.55
2022-09-13T01:25:13.845Z,21.18
2022-09-13T01:27:58.173Z,21.32
2022-09-13T01:30:27.562Z,21.29
2022-09-13T01:33:36.537Z,21.20
2022-09-13T01:36:12.295Z,21.12
2022-09-13T01:38:50.974Z,20.98
2022-09-13T01:41:24.858Z,21.15
2022-09-13T01:44:15.673Z,21.24
2022-09-13T01:47:20.413Z,21.31
2022-09-13T01:50:34.894Z,21.30
2022-09-13T01:53:05.987Z,20.99
2022-09-13T01:55:42.761Z,21.00
2022-09-13T01:58:12.574Z,21.06
2022-09-13T02:00:53.319Z,21.11
2022-09-13T02:03:34.508Z,22.05
2022-09-13T02:06:14.268Z,21.69
2022-09-13T02:08:43.968Z,22.04
2022-09-13T02:11:12.714Z,22.15
2022-09-13T02:14:01.163Z,21.36
2022-09-13T02:16:36.786Z,21.62
2022-09-13T02:19:08.672Z,21.29
2022-09-13T02:21:42.634Z,21.52
2022-09-13T02:24:14.553Z,21.33
2022-09-13T02:26:42.040Z,21.68
2022-09-13T02:29:12.341Z,22.20
2022-09-13T02:31:48.145Z,22.55
2022-09-13T02:34:34.750Z,22.58
2022-09-13T02:37:01.769Z,22.62
2022-09-13T02:39:29.575Z,22.73
2022-09-13T02:42:14.441Z,22.92
2022-09-13T02:44:46.893Z,22.93
2022-09-13T02:47:41.372Z,23.05
2022-09-13T02:50:13.987Z,22.97
2022-09-13T02:52:52.543Z,22.80
2022-09-13T02:55:37.817Z,22.88
2022-09-13T02:58:26.299Z,22.65
2022-09-13T03:00:54.925Z,22.80
2022-09-13T03:03:21.648Z,22.43
2022-09-13T03:05:48.453Z,22.69
2022-09-13T03:08:16.725Z,22.50
2022-09-13T03:11:07.970Z,22.64
2022-09-13T03:13:37.085Z,22.07
2022-09-13T03:16:28.569Z,22.47
2022-09-13T03:19:22.600Z,22.56
2022-09-13T03:21:52.219Z,22.31
2022-09-13T03:24:33.996Z,22.42
2022-09-13T03:27:11.147Z,22.31
2022-09-13T03:29:41.865Z,22.43
2022-09-13T03:32:19.751Z,22.49
2022-09-13T03:34:52.225Z,22.17
2022-09-13T03:37:43.460Z,22.20
2022-09-13T03:40:13.582Z,22.16
2022-09-13T03:42:48.358Z,21.91
2022-09-13T03:45:17.177Z,21.59
2022-09-13T03:47:45.550Z,21.44
2022-09-13T03:50:16.493Z,21.41
2022-09-13T03:52:46.490Z,20.86
2022-09-13T03:55:13.256Z,20.52
2022-09-13T03:57:39.726Z,20.87
2022-09-13T04:00:06.908Z,20.92
2022-09-13T04:02:33.686Z,20.63
2022-09-13T04:05:00.195Z,20.65
2022-09-13T04:07:26.859Z,20.51
2022-09-13T04:09:53.431Z,20.61
2022-09-13T04:12:20.314Z,20.53
2022-09-13T04:14:47.157Z,20.71
2022-09-13T04:17:14.104Z,20.25
2022-09-13T04:19:41.191Z,20.21
2022-09-13T04:22:07.892Z,20.41
2022-09-13T04:24:34.381Z,20.53
2022-09-13T04:27:01.493Z,20.60
2022-09-13T04:29:28.046Z,20.65
2022-09-13T04:31:55.487Z,21.14
2022-09-13T04:34:23.224Z,21.24
2022-09-13T04:36:51.252Z,21.39
2022-09-13T04:39:17.989Z,21.32
2022-09-13T04:41:47.099Z,21.75
2022-09-13T04:44:15.177Z,21.69
2022-09-13T04:46:41.836Z,21.83
2022-09-13T04:49:10.186Z,22.07
2022-09-13T04:51:36.693Z,22.27
2022-09-13T04:54:03.261Z,21.82
2022-09-13T04:56:29.754Z,22.01
2022-09-13T04:58:56.633Z,21.98
2022-09-13T05:01:27.693Z,21.68
2022-09-13T05:03:55.378Z,21.86
2022-09-13T05:06:22.841Z,21.94
2022-09-13T05:08:55.285Z,21.75
2022-09-13T05:11:23.265Z,21.71
2022-09-13T05:13:53.042Z,21.71
2022-09-13T05:16:19.620Z,21.80
2022-09-13T05:18:46.575Z,21.70
2022-09-13T05:21:13.386Z,21.73
2022-09-13T05:23:39.853Z,21.97
2022-09-13T05:26:06.683Z,22.10
2022-09-13T05:28:35.185Z,22.02
2022-09-13T05:31:04.048Z,21.93
2022-09-13T05:33:33.175Z,22.01
2022-09-13T05:35:59.784Z,21.96
2022-09-13T05:38:26.295Z,21.78
2022-09-13T05:41:01.434Z,22.03
2022-09-13T05:43:30.358Z,22.30
2022-09-13T05:46:17.472Z,22.46
2022-09-13T05:48:44.125Z,22.10
2022-09-13T05:51:11.831Z,22.43
2022-09-13T05:53:39.981Z,22.44
2022-09-13T05:56:15.878Z,22.43
2022-09-13T05:58:45.410Z,22.43
2022-09-13T06:01:13.107Z,22.55
2022-09-13T06:03:39.712Z,22.42
2022-09-13T06:06:06.487Z,21.97
2022-09-13T06:08:34.109Z,22.19
2022-09-13T06:11:02.446Z,22.36
2022-09-13T06:13:29.643Z,22.45
2022-09-13T06:15:56.706Z,22.59
2022-09-13T06:18:24.647Z,22.34
2022-09-13T06:20:51.392Z,22.78
2022-09-13T06:23:18.034Z,22.64
2022-09-13T06:25:44.568Z,22.76
2022-09-13T06:28:11.058Z,22.73
2022-09-13T06:30:37.541Z,22.97
2022-09-13T06:33:04.403Z,22.59
2022-09-13T06:35:30.962Z,23.09
2022-09-13T06:37:58.545Z,23.14
2022-09-13T06:40:25.880Z,23.00
2022-09-13T06:42:52.581Z,23.31
2022-09-13T06:45:19.112Z,23.39
2022-09-13T06:47:45.628Z,23.40
2022-09-13T06:50:12.364Z,23.42
2022-09-13T06:52:38.910Z,23.57
2022-09-13T06:55:08.431Z,23.65
2022-09-13T06:57:37.342Z,23.54
2022-09-13T07:00:04.318Z,23.39
2022-09-13T07:02:30.967Z,23.67
2022-09-13T07:04:57.468Z,23.35
2022-09-13T07:07:24.252Z,23.48
2022-09-13T07:09:50.783Z,23.63
2022-09-13T07:12:20.489Z,24.10
2022-09-13T07:14:47.363Z,24.31
2022-09-13T07:17:13.883Z,24.56
2022-09-13T07:19:40.580Z,24.39
2022-09-13T07:22:07.392Z,23.95
2022-09-13T07:24:33.881Z,24.06
2022-09-13T07:27:00.410Z,24.13
2022-09-13T07:29:27.068Z,24.08
2022-09-13T07:31:54.909Z,23.95
2022-09-13T07:34:23.428Z,24.24
2022-09-13T07:36:50.568Z,24.88
2022-09-13T07:39:22.037Z,25.10
2022-09-13T07:41:50.054Z,25.57
2022-09-13T07:44:17.037Z,25.32
2022-09-13T07:46:43.658Z,24.86
2022-09-13T07:49:12.473Z,25.13
2022-09-13T07:51:40.718Z,24.92
2022-09-13T07:54:11.574Z,25.25
2022-09-13T07:56:40.739Z,24.95
2022-09-13T07:59:12.614Z,23.36
2022-09-13T08:01:44.935Z,23.64
2022-09-13T08:04:13.759Z,24.78
2022-09-13T08:06:41.555Z,24.39
2022-09-13T08:09:09.428Z,24.74
2022-09-13T08:11:41.903Z,24.59
2022-09-13T08:14:10.917Z,24.43
2022-09-13T08:16:39.347Z,24.30
2022-09-13T08:19:07.051Z,24.26
2022-09-13T08:21:36.053Z,25.06
2022-09-13T08:24:03.546Z,24.47
2022-09-13T08:26:32.379Z,24.77
2022-09-13T08:29:00.723Z,25.48
2022-09-13T08:31:27.883Z,26.27
2022-09-13T08:33:55.862Z,25.66
2022-09-13T08:36:24.024Z,25.89
2022-09-13T08:38:59.134Z,25.61
2022-09-13T08:41:48.283Z,25.98
2022-09-13T08:44:34.627Z,27.23
2022-09-13T08:47:32.083Z,27.04
2022-09-13T08:50:37.734Z,25.83
2022-09-13T08:53:28.445Z,25.54
2022-09-13T08:56:08.694Z,27.25
2022-09-13T08:59:06.307Z,26.37
2022-09-13T09:01:57.771Z,28.12
2022-09-13T09:04:29.216Z,28.95
2022-09-13T09:07:21.656Z,28.71
2022-09-13T09:09:51.013Z,29.49
2022-09-13T09:12:38.742Z,29.63
2022-09-13T09:15:14.254Z,30.56
2022-09-13T09:17:56.681Z,31.18
2022-09-13T09:20:32.867Z,32.36
2022-09-13T09:23:40.357Z,32.64
2022-09-13T09:26:16.057Z,32.82
2022-09-13T09:28:44.820Z,32.80
2022-09-13T09:31:20.962Z,33.58
2022-09-13T09:33:59.935Z,34.66
2022-09-13T09:36:43.568Z,33.94
2022-09-13T09:39:16.149Z,34.15
2022-09-13T09:41:44.104Z,36.22
2022-09-13T09:44:20.158Z,37.20
2022-09-13T09:46:51.089Z,36.00
2022-09-13T09:49:45.710Z,36.80
2022-09-13T09:52:14.868Z,38.40
2022-09-13T09:54:41.728Z,40.22
2022-09-13T09:57:08.276Z,39.46
2022-09-13T09:59:36.064Z,38.40
2022-09-13T10:02:14.373Z,38.56
2022-09-13T10:04:40.935Z,37.06
2022-09-13T10:07:24.656Z,39.75
2022-09-13T10:10:09.382Z,39.62
2022-09-13T10:12:37.543Z,37.78
2022-09-13T10:15:29.608Z,37.52
2022-09-13T10:18:04.316Z,37.59
2022-09-13T10:20:31.474Z,36.01
2022-09-13T10:23:20.314Z,35.15
2022-09-13T10:26:07.024Z,34.41
2022-09-13T10:28:39.996Z,36.44
2022-09-13T10:31:12.769Z,37.64
2022-09-13T10:33:47.124Z,36.08
2022-09-13T10:36:29.631Z,37.24
2022-09-13T10:39:05.431Z,39.10
2022-09-13T10:41:35.466Z,39.65
2022-09-13T10:44:09.119Z,39.31
2022-09-13T10:46:39.044Z,42.62
2022-09-13T10:49:05.969Z,37.85
2022-09-13T10:51:38.663Z,37.20
2022-09-13T10:54:30.051Z,38.06
2022-09-13T10:56:56.603Z,39.18
2022-09-13T10:59:30.803Z,41.72
2022-09-13T11:02:22.735Z,40.57
2022-09-13T11:04:58.311Z,40.02
2022-09-13T11:08:06.462Z,41.21
2022-09-13T11:10:41.490Z,38.18
2022-09-13T11:13:25.337Z,40.26
2022-09-13T11:15:57.463Z,41.09
2022-09-13T11:18:36.151Z,39.62
2022-09-13T11:21:37.846Z,42.46
2022-09-13T11:24:29.885Z,45.43
2022-09-13T11:27:11.203Z,43.44
2022-09-13T11:29:59.579Z,42.18
2022-09-13T11:32:39.050Z,44.05
2022-09-13T11:35:14.772Z,42.83
2022-09-13T11:37:54.548Z,42.10
2022-09-13T11:40:44.272Z,43.69
2022-09-13T11:43:22.975Z,44.72
2022-09-13T11:46:08.641Z,45.00
2022-09-13T11:49:12.783Z,47.33
2022-09-13T11:52:03.430Z,49.10
2022-09-13T11:54:54.867Z,45.53
2022-09-13T11:57:26.135Z,42.77
2022-09-13T11:59:55.580Z,43.01
2022-09-13T12:02:30.076Z,44.83
2022-09-13T12:05:21.487Z,44.77
2022-09-13T12:08:00.127Z,48.13
2022-09-13T12:10:35.170Z,48.68
2022-09-13T12:13:03.410Z,48.02
2022-09-13T12:15:37.003Z,45.97
2022-09-13T12:18:10.219Z,39.34
2022-09-13T12:20:52.105Z,36.01
2022-09-13T12:23:27.426Z,35.28
2022-09-13T12:26:14.498Z,34.28
2022-09-13T12:28:46.572Z,35.28
2022-09-13T12:31:20.180Z,33.13
2022-09-13T12:33:47.796Z,33.69
2022-09-13T12:36:32.767Z,31.99
2022-09-13T12:39:18.137Z,31.97
2022-09-13T12:42:16.955Z,30.44
2022-09-13T12:45:01.608Z,30.68
2022-09-13T12:48:12.578Z,29.77
2022-09-13T12:50:45.168Z,29.80
2022-09-13T12:53:52.511Z,31.41
2022-09-13T12:56:41.834Z,30.24
2022-09-13T12:59:36.738Z,30.12
2022-09-13T13:02:19.642Z,29.98
2022-09-13T13:04:53.956Z,30.09
2022-09-13T13:07:22.839Z,30.07
2022-09-13T13:09:54.587Z,31.26
2022-09-13T13:12:39.040Z,31.08
2022-09-13T13:15:20.910Z,30.61
2022-09-13T13:17:48.723Z,31.27
2022-09-13T13:20:52.405Z,31.00
2022-09-13T13:23:33.068Z,31.84
2022-09-13T13:26:20.750Z,32.18
2022-09-13T13:28:47.709Z,32.64
2022-09-13T13:31:37.798Z,33.01
2022-09-13T13:34:24.206Z,33.15
2022-09-13T13:36:59.189Z,33.54
2022-09-13T13:39:25.855Z,33.83
2022-09-13T13:42:23.584Z,33.64
2022-09-13T13:44:53.242Z,33.70
2022-09-13T13:47:19.676Z,32.19
2022-09-13T13:49:52.967Z,30.43
2022-09-13T13:52:22.509Z,29.99
2022-09-13T13:54:55.465Z,30.93
2022-09-13T13:57:39.261Z,31.41
2022-09-13T14:00:23.259Z,31.89
2022-09-13T14:02:49.693Z,32.01
2022-09-13T14:05:47.288Z,32.91
2022-09-13T14:08:28.965Z,32.99
2022-09-13T14:11:04.529Z,33.69
2022-09-13T14:13:43.519Z,33.83
2022-09-13T14:16:10.427Z,32.97
2022-09-13T14:18:51.963Z,32.71
2022-09-13T14:21:26.933Z,31.81
2022-09-13T14:24:18.803Z,30.74
2022-09-13T14:26:47.615Z,30.19
2022-09-13T14:29:20.005Z,30.88
2022-09-13T14:31:51.219Z,31.21
2022-09-13T14:34:27.942Z,30.92
2022-09-13T14:36:57.511Z,30.41
2022-09-13T14:39:25.583Z,30.92
2022-09-13T14:42:13.880Z,31.45
2022-09-13T14:44:45.088Z,30.90
2022-09-13T14:47:31.848Z,31.45
2022-09-13T14:50:12.919Z,31.29
2022-09-13T14:52:48.531Z,30.27
2022-09-13T14:55:19.845Z,29.65
2022-09-13T14:57:52.759Z,30.22
2022-09-13T15:00:21.783Z,29.68
2022-09-13T15:02:53.406Z,29.78
2022-09-13T15:05:22.250Z,30.06
2022-09-13T15:07:49.314Z,29.93
2022-09-13T15:10:15.718Z,29.84
2022-09-13T15:13:04.341Z,30.09
2022-09-13T15:15:41.735Z,30.40
2022-09-13T15:18:19.374Z,30.32
2022-09-13T15:20:55.386Z,30.25
2022-09-13T15:23:30.233Z,29.90
2022-09-13T15:26:03.912Z,30.25
2022-09-13T15:28:34.044Z,29.92
2022-09-13T15:31:01.345Z,29.82
2022-09-13T15:33:34.361Z,29.72
2022-09-13T15:36:26.730Z,29.80
2022-09-13T15:39:02.460Z,29.41
2022-09-13T15:41:31.507Z,29.48
2022-09-13T15:44:03.099Z,28.75
2022-09-13T15:46:30.016Z,29.47
2022-09-13T15:48:59.468Z,29.70
2022-09-13T15:51:26.490Z,29.75
2022-09-13T15:53:54.026Z,29.89
2022-09-13T15:56:23.192Z,29.77
2022-09-13T15:58:49.762Z,29.99
2022-09-13T16:01:16.682Z,29.95
2022-09-13T16:03:43.270Z,30.07
2022-09-13T16:06:10.034Z,30.06
2022-09-13T16:08:40.228Z,29.86
2022-09-13T16:11:07.379Z,29.46
2022-09-13T16:13:34.347Z,29.40
2022-09-13T16:16:01.343Z,29.64
2022-09-13T16:18:27.886Z,29.17
2022-09-13T16:20:54.588Z,28.82
2022-09-13T16:23:21.164Z,28.83
2022-09-13T16:25:48.338Z,28.72
2022-09-13T16:28:17.709Z,28.98
2022-09-13T16:30:44.318Z,28.94
2022-09-13T16:33:10.809Z,28.60
2022-09-13T16:35:37.379Z,28.67
2022-09-13T16:38:04.054Z,28.31
2022-09-13T16:40:30.643Z,27.79
2022-09-13T16:42:57.259Z,28.57
2022-09-13T16:45:24.064Z,28.57
2022-09-13T16:47:50.755Z,28.50
2022-09-13T16:50:17.529Z,28.58
2022-09-13T16:52:44.255Z,28.36
2022-09-13T16:55:10.754Z,28.37
2022-09-13T16:57:37.591Z,28.27
2022-09-13T17:00:08.924Z,28.23
2022-09-13T17:02:35.843Z,28.18
2022-09-13T17:05:02.450Z,27.69
2022-09-13T17:07:28.896Z,27.38
2022-09-13T17:09:55.406Z,27.71
2022-09-13T17:12:22.019Z,27.87
2022-09-13T17:14:50.561Z,27.84
2022-09-13T17:17:17.717Z,27.69
2022-09-13T17:19:44.980Z,27.71
2022-09-13T17:22:11.908Z,27.77
2022-09-13T17:24:39.419Z,27.70
2022-09-13T17:27:06.810Z,27.56
2022-09-13T17:29:34.659Z,27.78
2022-09-13T17:32:02.629Z,27.81
2022-09-13T17:34:30.642Z,27.80
2022-09-13T17:36:57.267Z,27.68
2022-09-13T17:39:24.342Z,27.27
2022-09-13T17:41:51.404Z,27.34
2022-09-13T17:44:18.434Z,27.37
2022-09-13T17:46:45.019Z,27.06
2022-09-13T17:49:13.834Z,27.34
2022-09-13T17:51:40.385Z,27.21
2022-09-13T17:54:10.057Z,27.09
2022-09-13T17:56:38.946Z,27.18
2022-09-13T17:59:10.970Z,27.24
2022-09-13T18:01:39.846Z,27.18
2022-09-13T18:04:07.833Z,27.24
2022-09-13T18:06:35.666Z,27.16
2022-09-13T18:09:02.380Z,27.21
2022-09-13T18:11:29.234Z,27.02
2022-09-13T18:13:56.444Z,27.26
2022-09-13T18:16:26.001Z,27.10
2022-09-13T18:18:53.226Z,27.24
2022-09-13T18:21:21.688Z,27.27
2022-09-13T18:23:50.004Z,27.16
2022-09-13T18:26:19.417Z,27.21
2022-09-13T18:28:46.629Z,27.20
2022-09-13T18:31:16.059Z,27.18
2022-09-13T18:33:43.029Z,27.16
2022-09-13T18:36:17.306Z,27.09
2022-09-13T18:38:46.344Z,27.05
2022-09-13T18:41:14.761Z,27.15
2022-09-13T18:43:43.061Z,27.09
2022-09-13T18:46:15.306Z,27.00
2022-09-13T18:48:46.874Z,27.04
2022-09-13T18:51:15.959Z,26.18
2022-09-13T18:53:43.503Z,26.19
2022-09-13T18:56:12.619Z,26.22
2022-09-13T18:58:40.415Z,26.29
2022-09-13T19:01:12.701Z,26.33
2022-09-13T19:03:40.542Z,26.27
2022-09-13T19:06:10.196Z,26.28
2022-09-13T19:08:37.093Z,26.07
2022-09-13T19:11:04.160Z,26.23
2022-09-13T19:13:31.710Z,26.22
2022-09-13T19:15:59.596Z,26.12
2022-09-13T19:18:26.650Z,26.18
2022-09-13T19:21:11.940Z,26.15
2022-09-13T19:23:58.309Z,26.05
2022-09-13T19:26:33.213Z,26.20
2022-09-13T19:29:06.093Z,26.19
2022-09-13T19:31:38.526Z,25.83
2022-09-13T19:34:07.809Z,26.09
2022-09-13T19:36:36.531Z,25.95
2022-09-13T19:39:04.922Z,25.60
2022-09-13T19:41:31.481Z,25.34
2022-09-13T19:44:00.600Z,25.35
2022-09-13T19:46:31.315Z,25.22
2022-09-13T19:48:59.271Z,25.08
2022-09-13T19:51:31.127Z,25.01
2022-09-13T19:53:58.751Z,25.25
2022-09-13T19:56:30.167Z,25.14
2022-09-13T19:58:57.791Z,24.86
2022-09-13T20:01:26.781Z,24.71
2022-09-13T20:03:55.873Z,24.75
2022-09-13T20:06:24.063Z,24.74
2022-09-13T20:08:51.467Z,24.61
2022-09-13T20:11:18.675Z,24.42
2022-09-13T20:13:45.983Z,24.43
2022-09-13T20:16:16.811Z,24.51
2022-09-13T20:18:43.301Z,24.25
2022-09-13T20:21:10.265Z,24.25
2022-09-13T20:23:38.817Z,23.99
2022-09-13T20:26:14.426Z,24.35
2022-09-13T20:28:41.644Z,24.04
2022-09-13T20:31:08.732Z,24.66
2022-09-13T20:33:36.173Z,25.19
2022-09-13T20:36:10.593Z,25.29
2022-09-13T20:38:38.390Z,25.59
2022-09-13T20:41:11.519Z,25.27
2022-09-13T20:43:38.485Z,25.67
2022-09-13T20:46:05.918Z,25.46
2022-09-13T20:48:33.078Z,25.41
2022-09-13T20:51:10.012Z,25.34
2022-09-13T20:53:37.488Z,25.19
2022-09-13T20:56:09.351Z,25.22
2022-09-13T20:58:37.087Z,25.13
2022-09-13T21:01:06.622Z,25.04
2022-09-13T21:03:38.769Z,25.11
2022-09-13T21:06:06.500Z,25.04
2022-09-13T21:08:42.151Z,24.97
2022-09-13T21:11:20.877Z,24.72
2022-09-13T21:13:48.989Z,24.70
2022-09-13T21:16:18.026Z,24.71
2022-09-13T21:18:45.360Z,24.77
2022-09-13T21:21:23.623Z,24.67
2022-09-13T21:23:50.679Z,24.80
2022-09-13T21:26:20.613Z,24.85
2022-09-13T21:28:47.660Z,24.64
2022-09-13T21:31:19.599Z,24.89
2022-09-13T21:34:17.062Z,24.79
2022-09-13T21:36:45.098Z,24.96
2022-09-13T21:39:12.575Z,24.86
2022-09-13T21:41:39.490Z,25.00
2022-09-13T21:44:06.110Z,25.05
2022-09-13T21:46:34.808Z,25.21
2022-09-13T21:49:03.586Z,25.21
2022-09-13T21:51:35.414Z,24.72
2022-09-13T21:54:06.664Z,25.00
2022-09-13T21:56:36.445Z,24.94
2022-09-13T21:59:05.905Z,25.06
2022-09-13T22:01:38.995Z,25.09
2022-09-13T22:04:06.359Z,24.93
2022-09-13T22:06:34.632Z,24.93
2022-09-13T22:09:04.221Z,25.01
2022-09-13T22:11:33.527Z,24.43
2022-09-13T22:14:00.809Z,24.28
2022-09-13T22:16:34.412Z,24.71
2022-09-13T22:19:09.271Z,24.65
2022-09-13T22:21:38.723Z,24.52
2022-09-13T22:24:07.822Z,24.02
2022-09-13T22:26:37.638Z,24.24
2022-09-13T22:29:04.523Z,24.34
2022-09-13T22:31:33.868Z,24.28
2022-09-13T22:34:01.080Z,24.40
2022-09-13T22:36:28.865Z,24.64
2022-09-13T22:38:55.611Z,24.28
2022-09-13T22:41:25.304Z,24.34
2022-09-13T22:43:52.400Z,24.58
2022-09-13T22:46:22.468Z,24.39
2022-09-13T22:48:49.565Z,24.00
2022-09-13T22:51:17.626Z,24.44
2022-09-13T22:53:45.605Z,24.40
2022-09-13T22:56:18.354Z,24.44
2022-09-13T22:58:45.315Z,24.35
2022-09-13T23:01:19.029Z,24.48
2022-09-13T23:11:52.261Z,24.65
2022-09-13T23:14:20.077Z,24.68
2022-09-13T23:16:50.075Z,24.52
2022-09-13T23:19:18.613Z,24.45
2022-09-13T23:21:48.434Z,24.21
2022-09-13T23:24:17.062Z,24.50
2022-09-13T23:26:44.337Z,24.49
2022-09-13T23:29:13.973Z,24.22
2022-09-13T23:31:41.227Z,24.09
2022-09-13T23:34:36.029Z,24.02
2022-09-13T23:37:02.478Z,24.04
2022-09-13T23:39:28.940Z,23.82
2022-09-13T23:41:55.468Z,23.86
2022-09-13T23:44:22.505Z,23.73
2022-09-13T23:46:49.403Z,23.84
2022-09-13T23:49:16.070Z,23.84
2022-09-13T23:51:42.963Z,23.63
2022-09-13T23:54:10.058Z,23.60
2022-09-13T23:56:36.538Z,23.52
2022-09-13T23:59:04.059Z,23.83
